Time;durP1;ratioP1;P1;durP2;ratioP2;P2;SDS_P1;SDS_P2;PMS_P1;PMS_P2;Temp;Humidity;BMP_temperature;BMP_pressure;BME280_temperature;BME280_humidity;BME280_pressure;Samples;Min_cycle;Max_cycle;Signal;HPM_P1;HPM_P2
2024/04/19 00:01:25;;;;;;;1.50;1.23;;;8.40;98.20;;;;;;5294629;26;20306;-80
2024/04/19 00:03:53;;;;;;;1.50;1.20;;;8.40;98.20;;;;;;5312106;26;20487;-81
2024/04/19 00:06:19;;;;;;;1.50;1.20;;;8.40;98.20;;;;;;5280687;26;20670;-81
2024/04/19 00:08:48;;;;;;;1.50;1.20;;;8.40;98.20;;;;;;5303394;26;20485;-81
2024/04/19 00:11:13;;;;;;;1.50;1.20;;;8.40;98.20;;;;;;5288870;26;20264;-81
2024/04/19 00:13:42;;;;;;;1.50;1.20;;;8.40;98.20;;;;;;5307627;26;20561;-80
2024/04/19 00:16:08;;;;;;;1.50;1.20;;;8.50;98.20;;;;;;5279019;26;20297;-82
2024/04/19 00:18:39;;;;;;;1.50;1.20;;;8.50;98.20;;;;;;5311856;26;21233;-80
2024/04/19 00:21:04;;;;;;;1.50;1.20;;;8.50;98.20;;;;;;5288701;26;20252;-81
2024/04/19 00:23:33;;;;;;;1.50;1.20;;;8.50;98.20;;;;;;5314496;26;21051;-80
2024/04/19 00:26:01;;;;;;;1.50;1.17;;;8.50;98.20;;;;;;5285592;26;20236;-81
2024/04/19 00:28:27;;;;;;;1.47;1.10;;;8.50;98.20;;;;;;5325389;26;20475;-82
2024/04/19 00:30:57;;;;;;;1.50;1.20;;;8.50;98.20;;;;;;5282171;26;20577;-80
2024/04/19 00:33:23;;;;;;;1.50;1.10;;;8.50;98.20;;;;;;5314224;26;20291;-80
2024/04/19 00:35:54;;;;;;;1.47;1.20;;;8.60;98.20;;;;;;5280275;26;20528;-80
2024/04/19 00:38:20;;;;;;;1.47;1.10;;;8.60;98.20;;;;;;5314367;26;20479;-80
2024/04/19 00:40:48;;;;;;;1.50;1.30;;;8.60;98.20;;;;;;5277618;26;20901;-81
2024/04/19 00:43:16;;;;;;;1.50;1.20;;;8.60;98.20;;;;;;5317056;26;20706;-80
2024/04/19 00:45:44;;;;;;;1.50;1.20;;;8.60;98.20;;;;;;5285548;26;20543;-77
2024/04/19 00:48:14;;;;;;;1.50;1.20;;;8.60;98.20;;;;;;5278515;26;20491;-78
2024/04/19 00:50:43;;;;;;;1.50;1.20;;;8.50;98.20;;;;;;5274658;26;20713;-77
2024/04/19 00:53:14;;;;;;;1.50;1.10;;;8.50;98.20;;;;;;5299694;26;20943;-78
2024/04/19 00:55:43;;;;;;;1.50;1.10;;;8.50;98.20;;;;;;5297305;26;20467;-79
2024/04/19 00:58:10;;;;;;;1.50;1.20;;;8.50;98.20;;;;;;5317910;26;20784;-79
2024/04/19 01:00:38;;;;;;;1.47;1.20;;;8.50;98.20;;;;;;5285196;26;20496;-75
2024/04/19 01:03:04;;;;;;;1.50;1.20;;;8.50;98.20;;;;;;5290070;26;20961;-77
2024/04/19 01:05:33;;;;;;;1.50;1.20;;;8.60;98.20;;;;;;5296375;26;20475;-78
2024/04/19 01:07:59;;;;;;;1.50;1.20;;;8.50;98.20;;;;;;5301625;26;20554;-79
2024/04/19 01:10:31;;;;;;;1.50;1.30;;;8.50;98.20;;;;;;5279106;26;20894;-78
2024/04/19 01:12:58;;;;;;;1.47;1.20;;;8.50;98.20;;;;;;5316388;26;20486;-77
2024/04/19 01:15:27;;;;;;;1.50;1.20;;;8.50;98.20;;;;;;5291398;26;20585;-77
2024/04/19 01:17:53;;;;;;;1.50;1.30;;;8.40;98.20;;;;;;5304890;26;20501;-79
2024/04/19 01:20:22;;;;;;;1.50;1.40;;;8.40;98.20;;;;;;5288797;26;21025;-79
2024/04/19 01:22:49;;;;;;;1.50;1.13;;;8.40;98.20;;;;;;5297155;26;20259;-79
2024/04/19 01:25:25;;;;;;;1.50;1.20;;;8.40;98.20;;;;;;5299048;26;20471;-79
2024/04/19 01:27:54;;;;;;;1.50;1.20;;;8.40;98.20;;;;;;5311847;26;20959;-80
2024/04/19 01:30:23;;;;;;;1.50;1.20;;;8.40;98.20;;;;;;5295184;26;20512;-80
2024/04/19 01:32:49;;;;;;;1.50;1.20;;;8.30;98.20;;;;;;5312719;26;20644;-81
2024/04/19 01:35:17;;;;;;;1.50;1.20;;;8.30;98.20;;;;;;5295362;26;20870;-80
2024/04/19 01:37:43;;;;;;;1.50;1.20;;;8.30;98.20;;;;;;5293952;26;20329;-82
2024/04/19 01:40:12;;;;;;;1.50;1.23;;;8.30;98.20;;;;;;5298850;26;20848;-82
2024/04/19 01:42:40;;;;;;;1.50;1.20;;;8.30;98.20;;;;;;5302228;26;20658;-81
2024/04/19 01:45:09;;;;;;;1.50;1.20;;;8.30;98.20;;;;;;5299649;26;20543;-82
2024/04/19 01:47:38;;;;;;;1.50;1.10;;;8.40;98.20;;;;;;5307280;26;20557;-80
2024/04/19 01:50:05;;;;;;;1.50;1.20;;;8.40;98.20;;;;;;5297218;26;20467;-78
2024/04/19 01:52:33;;;;;;;1.50;1.20;;;8.40;98.20;;;;;;5305089;26;20482;-78
2024/04/19 01:54:59;;;;;;;1.50;1.20;;;8.40;98.20;;;;;;5296163;26;20540;-80
2024/04/19 01:57:28;;;;;;;1.50;1.20;;;8.30;98.20;;;;;;5290315;26;20499;-80
2024/04/19 01:59:53;;;;;;;1.50;1.20;;;8.30;98.20;;;;;;5300637;26;20523;-79
2024/04/19 02:02:26;;;;;;;1.50;1.20;;;8.30;98.20;;;;;;5302835;26;21013;-80
2024/04/19 02:04:53;;;;;;;1.50;1.30;;;8.20;98.20;;;;;;5299223;26;20244;-81
2024/04/19 02:07:21;;;;;;;1.50;1.20;;;8.20;98.20;;;;;;5308180;26;20510;-79
2024/04/19 02:09:47;;;;;;;1.50;1.20;;;8.10;98.20;;;;;;5303806;26;20645;-78
2024/04/19 02:12:15;;;;;;;1.50;1.20;;;8.10;98.20;;;;;;5310072;26;20598;-79
2024/04/19 02:14:41;;;;;;;1.50;1.30;;;8.10;98.20;;;;;;5302281;26;20241;-79
2024/04/19 02:17:10;;;;;;;1.50;1.20;;;8.00;98.20;;;;;;5301215;26;21095;-79
2024/04/19 02:19:39;;;;;;;1.50;1.20;;;7.90;98.20;;;;;;5306210;26;20300;-79
2024/04/19 02:22:08;;;;;;;1.50;1.20;;;7.90;98.20;;;;;;5290062;26;20584;-78
2024/04/19 02:24:34;;;;;;;1.50;1.17;;;7.90;98.20;;;;;;5295513;26;20539;-79
2024/04/19 02:27:04;;;;;;;1.50;1.20;;;7.90;98.20;;;;;;5305489;26;20506;-78
2024/04/19 02:32:17;;;;;;;1.50;1.27;;;7.90;98.20;;;;;;5312438;26;20568;-77
2024/04/19 02:34:48;;;;;;;1.50;1.20;;;7.90;98.20;;;;;;5301707;26;20544;-78
2024/04/19 02:37:17;;;;;;;1.50;1.20;;;7.90;98.20;;;;;;5311098;26;20518;-78
2024/04/19 02:39:45;;;;;;;1.50;1.20;;;7.90;98.20;;;;;;5297256;26;20562;-78
2024/04/19 02:42:14;;;;;;;1.50;1.20;;;7.90;98.20;;;;;;5301877;26;20503;-77
2024/04/19 02:44:42;;;;;;;1.50;1.20;;;7.80;98.20;;;;;;5306299;26;20482;-77
2024/04/19 02:47:11;;;;;;;1.50;1.30;;;7.80;98.20;;;;;;5300321;26;20590;-77
2024/04/19 02:49:39;;;;;;;1.50;1.20;;;7.80;98.20;;;;;;5302183;26;20559;-77
2024/04/19 02:52:10;;;;;;;1.50;1.20;;;7.80;98.20;;;;;;5312500;26;20489;-79
2024/04/19 02:54:38;;;;;;;1.50;1.20;;;7.80;98.20;;;;;;5306857;26;20577;-78
2024/04/19 02:57:08;;;;;;;1.50;1.20;;;7.80;98.20;;;;;;5296691;26;20503;-78
2024/04/19 02:59:36;;;;;;;1.50;1.20;;;7.80;98.20;;;;;;5302133;26;20610;-77
2024/04/19 03:02:05;;;;;;;1.50;1.20;;;7.80;98.20;;;;;;5309642;26;20525;-77
2024/04/19 03:04:33;;;;;;;1.50;1.20;;;7.70;98.20;;;;;;5306376;26;21132;-78
2024/04/19 03:07:02;;;;;;;1.50;1.20;;;7.70;98.20;;;;;;5306250;26;20642;-77
2024/04/19 03:09:33;;;;;;;1.50;1.20;;;7.70;98.20;;;;;;5309184;26;20963;-77
2024/04/19 03:12:01;;;;;;;1.50;1.20;;;7.70;98.20;;;;;;5290964;26;20901;-77
2024/04/19 03:14:29;;;;;;;1.50;1.30;;;7.70;98.20;;;;;;5297969;26;20475;-76
2024/04/19 03:16:58;;;;;;;1.50;1.20;;;7.70;98.20;;;;;;5307731;26;20534;-77
2024/04/19 03:19:24;;;;;;;1.50;1.20;;;7.70;98.20;;;;;;5308423;26;20629;-76
2024/04/19 03:21:52;;;;;;;1.50;1.20;;;7.70;98.20;;;;;;5300352;26;20503;-77
2024/04/19 03:24:21;;;;;;;1.50;1.20;;;7.60;98.20;;;;;;5306122;26;20331;-77
2024/04/19 03:26:52;;;;;;;1.50;1.30;;;7.60;98.20;;;;;;5299915;26;20504;-76
2024/04/19 03:29:20;;;;;;;1.50;1.20;;;7.60;98.20;;;;;;5309084;26;20481;-78
2024/04/19 03:31:49;;;;;;;1.50;1.30;;;7.60;98.20;;;;;;5301760;26;20901;-78
2024/04/19 03:34:19;;;;;;;1.50;1.20;;;7.60;98.20;;;;;;5311823;26;20540;-77
2024/04/19 03:36:50;;;;;;;1.50;1.20;;;7.60;98.20;;;;;;5304350;26;20917;-77
2024/04/19 03:39:18;;;;;;;1.50;1.20;;;7.60;98.20;;;;;;5307653;26;21106;-76
2024/04/19 03:41:47;;;;;;;1.50;1.20;;;7.60;98.20;;;;;;5294401;26;20592;-77
2024/04/19 03:47:02;;;;;;;1.50;1.20;;;7.60;98.20;;;;;;5295936;26;20553;-77
2024/04/19 03:49:31;;;;;;;1.50;1.30;;;7.50;98.20;;;;;;5294551;26;20593;-77
2024/04/19 03:51:59;;;;;;;1.50;1.20;;;7.50;98.20;;;;;;5295097;26;20572;-78
2024/04/19 03:54:27;;;;;;;1.50;1.20;;;7.60;98.20;;;;;;5303075;26;20606;-78
2024/04/19 03:56:56;;;;;;;1.50;1.30;;;7.60;98.20;;;;;;5295456;26;20569;-77
2024/04/19 03:59:27;;;;;;;1.50;1.20;;;7.60;98.20;;;;;;5297484;26;21032;-78
2024/04/19 04:01:55;;;;;;;1.50;1.20;;;7.60;98.20;;;;;;5307911;26;20592;-77
2024/04/19 04:04:24;;;;;;;1.50;1.20;;;7.60;98.20;;;;;;5308017;26;20547;-77
2024/04/19 04:06:52;;;;;;;1.50;1.20;;;7.60;98.20;;;;;;5299496;26;20494;-76
2024/04/19 04:09:20;;;;;;;1.50;1.30;;;7.60;98.20;;;;;;5312428;26;20523;-78
2024/04/19 04:11:49;;;;;;;1.50;1.30;;;7.50;98.20;;;;;;5299588;26;20498;-77
2024/04/19 04:14:17;;;;;;;1.50;1.30;;;7.50;98.20;;;;;;5303309;26;21129;-78
2024/04/19 04:16:48;;;;;;;1.50;1.30;;;7.40;98.20;;;;;;5302875;26;20638;-78
2024/04/19 04:19:17;;;;;;;1.50;1.27;;;7.40;98.20;;;;;;5307397;26;20476;-78
2024/04/19 04:21:45;;;;;;;1.50;1.20;;;7.40;98.20;;;;;;5293149;26;20888;-77
2024/04/19 04:24:14;;;;;;;1.50;1.20;;;7.40;98.20;;;;;;5304420;26;20625;-77
2024/04/19 04:26:42;;;;;;;1.50;1.20;;;7.30;98.20;;;;;;5299261;26;21327;-77
2024/04/19 04:29:11;;;;;;;1.50;1.20;;;7.30;98.20;;;;;;5312745;26;20605;-78
2024/04/19 04:31:40;;;;;;;1.50;1.30;;;7.30;98.20;;;;;;5286236;26;20501;-77
2024/04/19 04:34:11;;;;;;;1.50;1.30;;;7.20;98.20;;;;;;5293381;26;20476;-76
2024/04/19 04:36:39;;;;;;;1.50;1.30;;;7.20;98.20;;;;;;5283042;26;20650;-77
2024/04/19 04:39:08;;;;;;;1.50;1.20;;;7.20;98.20;;;;;;5308521;26;20568;-76
2024/04/19 04:41:39;;;;;;;1.50;1.30;;;7.20;98.20;;;;;;5293682;26;20505;-77
2024/04/19 04:44:07;;;;;;;1.50;1.20;;;7.10;98.20;;;;;;5301853;26;20535;-77
2024/04/19 04:46:36;;;;;;;1.50;1.20;;;7.10;98.20;;;;;;5295834;26;20562;-78
2024/04/19 04:49:05;;;;;;;1.50;1.20;;;7.10;98.20;;;;;;5302300;26;20602;-78
2024/04/19 04:51:36;;;;;;;1.50;1.27;;;7.10;98.20;;;;;;5303066;26;21092;-78
2024/04/19 04:54:05;;;;;;;1.50;1.20;;;7.10;98.20;;;;;;5320176;26;20532;-78
2024/04/19 04:56:33;;;;;;;1.50;1.20;;;7.10;98.20;;;;;;5303108;26;20550;-78
2024/04/19 04:59:02;;;;;;;1.50;1.20;;;7.10;98.20;;;;;;5321558;26;20471;-78
2024/04/19 05:01:36;;;;;;;1.50;1.37;;;7.00;98.20;;;;;;5330755;21;20556;-79
2024/04/19 05:04:14;;;;;;;1.50;1.20;;;7.00;98.20;;;;;;5297660;26;20539;-79
2024/04/19 05:06:45;;;;;;;1.50;1.20;;;7.00;98.20;;;;;;5293789;26;20627;-77
2024/04/19 05:09:14;;;;;;;1.50;1.30;;;7.00;98.20;;;;;;5295856;26;20566;-73
2024/04/19 05:11:42;;;;;;;1.50;1.20;;;7.00;98.20;;;;;;5272289;26;20503;-79
2024/04/19 05:14:11;;;;;;;1.50;1.20;;;6.90;98.20;;;;;;5279734;27;20633;-77
2024/04/19 05:16:40;;;;;;;1.50;1.20;;;7.00;98.20;;;;;;5272757;26;20954;-79
2024/04/19 05:19:08;;;;;;;1.50;1.33;;;6.90;98.20;;;;;;5284620;27;21130;-80
2024/04/19 05:21:37;;;;;;;1.50;1.20;;;6.90;98.20;;;;;;5263408;26;20852;-79
2024/04/19 05:24:08;;;;;;;1.50;1.30;;;6.90;98.20;;;;;;5289933;27;20488;-80
2024/04/19 05:26:45;;;;;;;1.50;1.20;;;7.00;98.20;;;;;;5276786;26;20512;-80
2024/04/19 05:29:27;;;;;;;1.50;1.20;;;7.00;98.20;;;;;;5284624;27;20606;-80
2024/04/19 05:31:58;;;;;;;1.50;1.30;;;7.00;98.20;;;;;;5260003;26;20493;-78
2024/04/19 05:37:23;;;;;;;1.50;1.20;;;7.00;98.20;;;;;;5264275;26;20504;-79
2024/04/19 05:40:03;;;;;;;1.50;1.20;;;7.00;98.20;;;;;;5277586;27;20738;-79
2024/04/19 05:42:36;;;;;;;1.50;1.20;;;7.00;98.20;;;;;;5259558;27;20950;-80
2024/04/19 05:45:11;;;;;;;1.50;1.20;;;7.00;98.20;;;;;;5268802;27;20778;-81
2024/04/19 05:47:44;;;;;;;1.50;1.30;;;7.00;98.20;;;;;;5266560;26;20551;-81
2024/04/19 05:50:13;;;;;;;1.50;1.30;;;7.00;98.20;;;;;;5279944;26;20480;-78
2024/04/19 05:52:45;;;;;;;1.50;1.20;;;7.00;98.20;;;;;;5272329;27;21070;-77
2024/04/19 05:55:27;;;;;;;1.50;1.30;;;7.10;98.20;;;;;;5284430;27;20472;-79
2024/04/19 05:58:06;;;;;;;1.50;1.30;;;7.10;98.20;;;;;;5256224;26;21332;-79
2024/04/19 06:00:47;;;;;;;1.50;1.20;;;7.10;98.20;;;;;;5278414;26;20525;-81
2024/04/19 06:03:15;;;;;;;1.50;1.30;;;7.10;98.20;;;;;;5233775;27;20476;-79
2024/04/19 06:05:55;;;;;;;1.50;1.30;;;7.20;98.20;;;;;;5274614;27;20560;-81
2024/04/19 06:08:29;;;;;;;1.50;1.30;;;7.20;98.20;;;;;;5239814;27;20531;-78
2024/04/19 06:11:02;;;;;;;1.53;1.30;;;7.20;98.20;;;;;;5270457;26;20864;-80
2024/04/19 06:13:33;;;;;;;1.60;1.33;;;7.20;98.20;;;;;;5278821;27;20496;-77
2024/04/19 06:16:02;;;;;;;1.50;1.23;;;7.20;98.20;;;;;;5253259;26;20524;-79
2024/04/19 06:18:30;;;;;;;1.50;1.20;;;7.30;98.20;;;;;;5269252;27;20474;-79
2024/04/19 06:20:59;;;;;;;1.50;1.30;;;7.30;98.20;;;;;;5264915;26;20877;-77
2024/04/19 06:23:30;;;;;;;1.50;1.20;;;7.30;98.20;;;;;;5263556;27;20690;-78
2024/04/19 06:26:11;;;;;;;1.50;1.20;;;7.30;98.20;;;;;;5255898;26;21025;-77
2024/04/19 06:28:40;;;;;;;1.50;1.20;;;7.40;98.20;;;;;;5268147;27;21093;-79
2024/04/19 06:31:12;;;;;;;1.50;1.20;;;7.40;98.20;;;;;;5257300;26;21056;-76
2024/04/19 06:33:43;;;;;;;1.50;1.30;;;7.50;98.20;;;;;;5266511;27;20561;-77
2024/04/19 06:36:11;;;;;;;1.50;1.20;;;7.50;98.20;;;;;;5260778;27;20556;-79
2024/04/19 06:38:40;;;;;;;1.50;1.20;;;7.60;98.20;;;;;;5270217;27;20519;-79
2024/04/19 06:41:11;;;;;;;1.50;1.10;;;7.60;98.20;;;;;;5260816;26;20497;-78
2024/04/19 06:43:40;;;;;;;1.50;1.20;;;7.70;98.20;;;;;;5267449;27;20531;-78
2024/04/19 06:46:16;;;;;;;1.50;1.20;;;7.70;98.20;;;;;;5258989;26;20492;-78
2024/04/19 06:48:47;;;;;;;1.50;1.20;;;7.70;98.20;;;;;;5276945;27;20528;-80
2024/04/19 06:51:16;;;;;;;1.50;1.20;;;7.70;98.20;;;;;;5256131;26;20504;-79
2024/04/19 06:53:44;;;;;;;1.50;1.20;;;7.80;98.20;;;;;;5265664;27;20530;-78
2024/04/19 06:56:16;;;;;;;1.50;1.20;;;7.80;98.20;;;;;;5257375;27;20504;-79
2024/04/19 06:58:48;;;;;;;1.50;1.20;;;7.80;98.20;;;;;;5269322;27;20479;-80
2024/04/19 07:01:17;;;;;;;1.50;1.20;;;7.90;98.20;;;;;;5257322;26;21195;-79
2024/04/19 07:03:46;;;;;;;1.50;1.20;;;7.90;98.20;;;;;;5259869;27;20531;-80
2024/04/19 07:06:16;;;;;;;1.50;1.20;;;7.90;98.20;;;;;;5262697;27;20496;-78
2024/04/19 07:08:46;;;;;;;1.50;1.10;;;8.00;98.20;;;;;;5272054;27;20477;-79
2024/04/19 07:11:31;;;;;;;1.50;1.20;;;8.00;98.20;;;;;;5265619;26;20483;-79
2024/04/19 07:14:03;;;;;;;1.50;1.30;;;8.00;98.20;;;;;;5269807;27;20472;-77
2024/04/19 07:16:32;;;;;;;1.50;1.20;;;8.10;98.20;;;;;;5248510;26;20910;-75
2024/04/19 07:19:01;;;;;;;1.50;1.20;;;8.10;98.20;;;;;;5268435;27;20585;-77
2024/04/19 07:21:32;;;;;;;1.50;1.10;;;8.10;98.20;;;;;;5263685;26;20630;-77
2024/04/19 07:24:01;;;;;;;1.50;1.23;;;8.20;98.20;;;;;;5272351;27;20465;-77
2024/04/19 07:26:37;;;;;;;1.50;1.10;;;8.20;98.20;;;;;;5259344;26;20496;-78
2024/04/19 07:29:06;;;;;;;1.50;1.20;;;8.20;98.20;;;;;;5272228;27;20597;-77
2024/04/19 07:31:35;;;;;;;1.50;1.10;;;8.20;98.20;;;;;;5263160;26;20964;-77
2024/04/19 07:34:04;;;;;;;1.50;1.20;;;8.30;98.20;;;;;;5268599;27;20489;-76
2024/04/19 07:36:32;;;;;;;1.50;1.20;;;8.30;98.20;;;;;;5256850;26;20545;-80
2024/04/19 07:39:01;;;;;;;1.50;1.10;;;8.30;98.20;;;;;;5267783;27;20515;-80
2024/04/19 07:41:32;;;;;;;1.50;1.20;;;8.40;98.20;;;;;;5251580;26;20501;-78
2024/04/19 07:44:01;;;;;;;1.50;1.20;;;8.40;98.20;;;;;;5271716;26;20736;-79
2024/04/19 07:46:29;;;;;;;1.50;1.20;;;8.50;98.20;;;;;;5259122;26;20595;-75
2024/04/19 07:48:58;;;;;;;1.50;1.10;;;8.50;98.20;;;;;;5263643;27;20482;-74
2024/04/19 07:51:26;;;;;;;1.50;1.20;;;8.60;98.20;;;;;;5261408;26;20609;-77
2024/04/19 07:53:55;;;;;;;1.50;1.20;;;8.60;98.20;;;;;;5264074;27;20912;-76
2024/04/19 07:56:24;;;;;;;1.50;1.20;;;8.60;98.20;;;;;;5249472;26;20500;-78
2024/04/19 07:58:56;;;;;;;1.50;1.10;;;8.70;98.20;;;;;;5261555;27;20467;-78
2024/04/19 08:01:26;;;;;;;1.50;1.30;;;8.70;98.20;;;;;;5254835;26;21114;-78
2024/04/19 08:04:01;;;;;;;1.50;1.20;;;8.80;98.20;;;;;;5264996;27;20477;-77
2024/04/19 08:06:30;;;;;;;1.60;1.30;;;8.80;98.20;;;;;;5261828;26;20491;-77
2024/04/19 08:08:59;;;;;;;1.50;1.10;;;8.90;98.20;;;;;;5265445;27;20546;-77
2024/04/19 08:11:27;;;;;;;1.50;1.20;;;8.90;98.20;;;;;;5258370;26;20898;-77
2024/04/19 08:13:59;;;;;;;1.50;1.20;;;8.90;98.20;;;;;;5261861;27;20488;-78
2024/04/19 08:16:31;;;;;;;1.50;1.13;;;9.00;98.20;;;;;;5248589;27;20493;-79
2024/04/19 08:19:04;;;;;;;1.50;1.20;;;9.00;98.20;;;;;;5266670;27;21021;-79
2024/04/19 08:21:35;;;;;;;1.50;1.10;;;9.10;98.20;;;;;;5251539;26;20508;-82
2024/04/19 08:24:04;;;;;;;1.53;1.20;;;9.10;98.20;;;;;;5268434;27;20467;-80
2024/04/19 08:26:33;;;;;;;1.50;1.20;;;9.10;98.20;;;;;;5259117;26;20493;-78
2024/04/19 08:29:04;;;;;;;1.50;1.10;;;9.20;98.20;;;;;;5267036;27;20469;-78
2024/04/19 08:31:34;;;;;;;1.50;1.10;;;9.20;98.20;;;;;;5261120;26;20545;-78
2024/04/19 08:34:03;;;;;;;1.50;1.10;;;9.20;98.20;;;;;;5264431;27;20476;-77
2024/04/19 08:36:31;;;;;;;1.50;1.20;;;9.30;98.20;;;;;;5261140;26;21041;-79
2024/04/19 08:39:00;;;;;;;1.50;1.13;;;9.30;98.20;;;;;;5264101;27;20493;-78
2024/04/19 08:41:31;;;;;;;1.50;1.10;;;9.40;98.20;;;;;;5262387;26;20973;-78
2024/04/19 08:44:04;;;;;;;1.50;1.10;;;9.40;98.20;;;;;;5266957;27;20985;-78
2024/04/19 08:46:33;;;;;;;1.50;1.20;;;9.40;98.20;;;;;;5251148;26;20579;-77
2024/04/19 08:49:06;;;;;;;1.50;1.10;;;9.50;98.20;;;;;;5262646;27;20479;-80
2024/04/19 08:51:43;;;;;;;1.50;1.20;;;9.50;98.20;;;;;;5251982;26;21138;-77
2024/04/19 08:54:12;;;;;;;1.50;1.20;;;9.60;98.20;;;;;;5266193;27;20619;-79
2024/04/19 08:56:42;;;;;;;1.50;1.20;;;9.60;98.20;;;;;;5257088;26;20504;-77
2024/04/19 08:59:13;;;;;;;1.50;1.20;;;9.70;98.20;;;;;;5263523;27;20473;-78
2024/04/19 09:01:42;;;;;;;1.50;1.20;;;9.70;98.20;;;;;;5245856;26;20970;-79
2024/04/19 09:04:10;;;;;;;1.50;1.10;;;9.70;98.20;;;;;;5265676;27;20463;-75
2024/04/19 09:09:44;;;;;;;1.50;1.10;;;9.80;98.20;;;;;;5198034;27;21426;-78
2024/04/19 09:12:13;;;;;;;1.50;1.10;;;9.90;98.20;;;;;;5188594;27;20515;-76
2024/04/19 09:14:44;;;;;;;1.50;1.20;;;9.90;98.20;;;;;;5261164;27;20481;-76
2024/04/19 09:17:13;;;;;;;1.50;1.10;;;10.00;98.20;;;;;;5257197;27;20913;-77
2024/04/19 09:19:41;;;;;;;1.50;1.10;;;10.10;98.20;;;;;;5263347;27;20484;-77
2024/04/19 09:22:10;;;;;;;1.50;1.10;;;10.20;98.20;;;;;;5251580;26;20512;-78
2024/04/19 09:24:40;;;;;;;1.50;1.07;;;10.20;98.20;;;;;;5268450;27;21021;-76
2024/04/19 09:27:09;;;;;;;1.50;1.20;;;10.30;98.20;;;;;;5258806;26;20773;-76
2024/04/19 09:29:38;;;;;;;1.50;1.10;;;10.30;98.20;;;;;;5260947;27;20481;-77
2024/04/19 09:32:09;;;;;;;1.53;1.20;;;10.40;98.20;;;;;;5254153;26;20497;-76
2024/04/19 09:34:38;;;;;;;1.50;1.13;;;10.40;98.20;;;;;;5262632;27;20832;-74
2024/04/19 09:37:07;;;;;;;1.50;1.10;;;10.40;98.20;;;;;;5258910;26;20865;-76
2024/04/19 09:39:38;;;;;;;1.50;1.10;;;10.40;98.20;;;;;;5252071;27;20480;-78
2024/04/19 09:42:08;;;;;;;1.50;1.10;;;10.40;98.20;;;;;;5254957;26;20492;-81
2024/04/19 09:44:38;;;;;;;1.50;1.10;;;10.40;98.20;;;;;;5268021;27;20846;-79
2024/04/19 09:47:12;;;;;;;1.50;1.10;;;10.50;98.20;;;;;;5264210;26;20838;-78
2024/04/19 09:49:46;;;;;;;1.50;1.10;;;10.60;98.20;;;;;;5265207;27;20476;-77
2024/04/19 09:52:19;;;;;;;1.50;1.10;;;10.70;98.20;;;;;;5253028;26;20786;-80
2024/04/19 09:54:52;;;;;;;1.50;1.00;;;10.80;98.20;;;;;;5263045;27;20475;-78
2024/04/19 09:57:22;;;;;;;1.50;1.10;;;10.90;98.20;;;;;;5256004;26;20483;-79
2024/04/19 09:59:51;;;;;;;1.50;1.10;;;11.00;98.20;;;;;;5262120;27;20517;-81
2024/04/19 10:02:24;;;;;;;1.50;1.00;;;11.10;98.20;;;;;;5247444;26;20550;-80
2024/04/19 10:04:51;;;;;;;1.50;1.10;;;11.20;98.20;;;;;;5262204;27;21055;-77
2024/04/19 10:07:21;;;;;;;1.50;1.00;;;11.20;98.20;;;;;;5251513;27;20530;-79
2024/04/19 10:09:50;;;;;;;1.50;1.00;;;11.20;98.20;;;;;;5256343;27;20871;-78
2024/04/19 10:12:19;;;;;;;1.50;1.10;;;11.20;98.20;;;;;;5247886;26;20489;-79
2024/04/19 10:14:52;;;;;;;1.50;1.10;;;11.30;98.20;;;;;;5259217;27;20519;-78
2024/04/19 10:17:23;;;;;;;1.50;1.00;;;11.40;98.20;;;;;;5250042;26;20495;-80
2024/04/19 10:19:58;;;;;;;1.50;1.00;;;11.40;98.20;;;;;;5261308;27;20482;-79
2024/04/19 10:22:31;;;;;;;1.50;1.20;;;11.50;98.20;;;;;;5251469;26;20544;-78
2024/04/19 10:24:59;;;;;;;1.50;1.10;;;11.50;98.20;;;;;;5262950;27;20470;-76
2024/04/19 10:27:28;;;;;;;1.50;1.00;;;11.60;98.20;;;;;;5241719;26;20568;-77
2024/04/19 10:29:59;;;;;;;1.50;1.00;;;11.50;98.20;;;;;;5261925;27;21038;-78
2024/04/19 10:32:31;;;;;;;1.50;1.00;;;11.50;98.20;;;;;;5251080;26;20508;-75
2024/04/19 10:35:00;;;;;;;1.50;1.00;;;11.40;98.20;;;;;;5263662;27;20483;-76
2024/04/19 10:37:29;;;;;;;1.50;1.20;;;11.20;98.20;;;;;;5246841;26;20790;-77
2024/04/19 10:40:01;;;;;;;1.50;1.00;;;11.00;98.20;;;;;;5262873;27;20499;-77
2024/04/19 10:42:30;;;;;;;1.60;1.20;;;10.80;98.20;;;;;;5250829;26;20500;-78
2024/04/19 10:44:59;;;;;;;1.50;1.03;;;10.50;98.20;;;;;;5260539;27;21336;-76
2024/04/19 10:47:30;;;;;;;1.53;1.20;;;10.40;98.20;;;;;;5252388;26;20481;-77
2024/04/19 10:49:59;;;;;;;1.50;1.10;;;10.30;98.20;;;;;;5255627;27;20526;-75
2024/04/19 10:52:28;;;;;;;1.50;1.20;;;10.20;98.20;;;;;;5251444;26;20556;-78
2024/04/19 10:54:58;;;;;;;1.50;1.00;;;10.20;98.20;;;;;;5255734;27;21168;-77
2024/04/19 10:57:28;;;;;;;1.50;1.13;;;10.20;98.20;;;;;;5260586;26;20622;-78
2024/04/19 10:59:57;;;;;;;1.50;1.10;;;10.20;98.20;;;;;;5261485;27;20552;-77
2024/04/19 11:02:29;;;;;;;1.50;1.20;;;10.10;98.20;;;;;;5260422;26;20818;-78
2024/04/19 11:05:01;;;;;;;1.50;1.00;;;10.00;98.20;;;;;;5256672;27;20500;-78
2024/04/19 11:07:30;;;;;;;1.50;1.10;;;10.00;98.20;;;;;;5258771;26;20966;-79
2024/04/19 11:10:07;;;;;;;1.50;1.10;;;10.00;98.20;;;;;;5259792;27;20488;-80
2024/04/19 11:12:41;;;;;;;1.50;1.10;;;10.00;98.20;;;;;;5253902;26;20602;-80
2024/04/19 11:15:13;;;;;;;1.50;1.10;;;10.00;98.20;;;;;;5267142;27;21043;-79
2024/04/19 11:17:45;;;;;;;1.50;1.00;;;10.00;98.20;;;;;;5255106;26;20587;-81
2024/04/19 11:20:22;;;;;;;1.50;1.10;;;10.10;98.20;;;;;;5261953;26;20604;-81
2024/04/19 11:23:36;;;;;;;1.50;1.07;;;10.10;98.20;;;;;;5260611;26;20504;-78
2024/04/19 11:26:07;;;;;;;1.50;1.10;;;10.10;98.20;;;;;;5260504;26;21060;-79
2024/04/19 11:28:37;;;;;;;1.50;1.10;;;10.10;98.20;;;;;;5281309;27;20949;-77
2024/04/19 11:31:11;;;;;;;1.50;1.10;;;10.10;98.20;;;;;;5271594;26;20518;-75
2024/04/19 11:33:40;;;;;;;1.50;1.10;;;10.10;98.20;;;;;;5270417;27;20533;-77
2024/04/19 11:36:14;;;;;;;1.50;1.10;;;10.20;98.20;;;;;;5257690;26;21027;-79
2024/04/19 11:38:43;;;;;;;1.50;1.10;;;10.30;98.20;;;;;;5275095;27;20880;-78
2024/04/19 11:41:14;;;;;;;1.50;1.00;;;10.40;98.20;;;;;;5255909;26;20516;-79
2024/04/19 11:43:49;;;;;;;1.50;1.10;;;10.50;98.20;;;;;;5279851;27;20464;-79
2024/04/19 11:46:23;;;;;;;1.50;1.10;;;10.80;98.20;;;;;;5272791;26;20510;-77
2024/04/19 11:48:52;;;;;;;1.50;1.10;;;11.00;98.20;;;;;;5278529;27;21135;-78
2024/04/19 11:51:24;;;;;;;1.50;1.10;;;11.30;98.20;;;;;;5262950;26;20625;-78
2024/04/19 11:53:52;;;;;;;1.50;1.00;;;11.60;98.20;;;;;;5273412;27;20469;-78
2024/04/19 11:56:21;;;;;;;1.50;1.00;;;11.80;98.20;;;;;;5267803;26;21221;-79
2024/04/19 12:02:12;;;;;;;1.50;1.10;;;12.10;98.20;;;;;;5173489;27;20549;-77
2024/04/19 12:04:51;;;;;;;1.50;1.00;;;12.10;98.20;;;;;;5171478;27;21215;-79
2024/04/19 12:07:24;;;;;;;1.50;1.10;;;12.00;98.20;;;;;;5223501;26;20547;-80
2024/04/19 12:09:53;;;;;;;1.50;1.00;;;12.00;98.20;;;;;;5262537;27;20536;-81
2024/04/19 12:12:24;;;;;;;1.50;1.00;;;12.10;98.20;;;;;;5253125;26;20851;-79
2024/04/19 12:14:53;;;;;;;1.50;1.00;;;12.10;98.20;;;;;;5262424;27;21084;-79
2024/04/19 12:17:22;;;;;;;1.50;1.00;;;12.20;98.20;;;;;;5260219;26;20500;-78
2024/04/19 12:19:52;;;;;;;1.50;1.00;;;12.20;98.20;;;;;;5257978;27;20995;-78
2024/04/19 12:22:23;;;;;;;1.50;1.00;;;12.30;98.20;;;;;;5244218;26;21202;-78
2024/04/19 12:24:52;;;;;;;1.50;1.00;;;12.40;98.20;;;;;;5258722;27;20484;-78
2024/04/19 12:27:21;;;;;;;1.50;1.00;;;12.40;98.20;;;;;;5257371;26;20491;-78
2024/04/19 12:29:50;;;;;;;1.50;1.00;;;12.40;98.20;;;;;;5268202;27;21113;-78
2024/04/19 12:32:25;;;;;;;1.50;1.00;;;12.30;98.20;;;;;;5260038;26;20865;-79
2024/04/19 12:35:09;;;;;;;1.50;1.00;;;12.40;98.20;;;;;;5272395;27;20484;-78
2024/04/19 12:37:41;;;;;;;1.50;1.10;;;12.70;98.20;;;;;;5265208;26;20504;-80
2024/04/19 12:40:10;;;;;;;1.50;1.00;;;12.90;98.20;;;;;;5265262;27;20546;-78
2024/04/19 12:42:42;;;;;;;1.50;1.10;;;13.00;98.20;;;;;;5260319;26;20500;-78
2024/04/19 12:48:32;;;;;;;1.50;1.00;;;12.90;98.20;;;;;;5237183;27;20535;-77
2024/04/19 12:51:25;;;;;;;1.50;1.00;;;12.80;98.20;;;;;;5255524;26;20891;-79
2024/04/19 12:53:57;;;;;;;1.50;1.00;;;12.50;98.20;;;;;;5250635;26;21359;-76
2024/04/19 12:56:26;;;;;;;1.50;1.00;;;12.20;98.20;;;;;;5256954;26;20508;-76
2024/04/19 12:58:56;;;;;;;1.50;1.00;;;11.70;98.20;;;;;;5265571;27;21015;-78
2024/04/19 13:01:27;;;;;;;1.50;1.00;;;11.30;98.20;;;;;;5250518;26;20535;-77
2024/04/19 13:04:16;;;;;;;1.50;1.00;;;11.10;98.20;;;;;;5261224;27;20469;-78
2024/04/19 13:06:45;;;;;;;1.50;1.00;;;11.00;98.20;;;;;;5252696;26;20541;-79
2024/04/19 13:09:19;;;;;;;1.50;1.00;;;11.00;98.20;;;;;;5263814;27;21027;-77
2024/04/19 13:11:47;;;;;;;1.50;1.10;;;10.90;98.20;;;;;;5256514;26;20572;-77
2024/04/19 13:14:22;;;;;;;1.50;1.00;;;10.90;98.20;;;;;;5264463;27;20477;-79
2024/04/19 13:16:48;;;;;;;1.50;1.00;;;10.80;98.20;;;;;;5253232;26;20496;-78
2024/04/19 13:19:22;;;;;;;1.50;1.10;;;10.70;98.20;;;;;;5269315;26;20487;-79
2024/04/19 13:21:51;;;;;;;1.50;1.20;;;10.50;98.20;;;;;;5263356;26;20543;-76
2024/04/19 13:24:23;;;;;;;1.50;1.20;;;10.30;98.20;;;;;;5266738;26;21388;-78
2024/04/19 13:26:58;;;;;;;1.50;1.10;;;9.90;98.20;;;;;;5250250;26;20504;-76